sensor_id;sensor_type;location;lat;lon;timestamp;temperature;humidity
7622;DHT22;3852;52.284;8.032;2022-08-14T00:00:49;23.00;99.90
7622;DHT22;3852;52.284;8.032;2022-08-14T00:03:29;23.00;99.90
7622;DHT22;3852;52.284;8.032;2022-08-14T00:05:58;23.00;99.90
7622;DHT22;3852;52.284;8.032;2022-08-14T00:08:24;22.90;99.90
7622;DHT22;3852;52.284;8.032;2022-08-14T00:10:51;23.00;99.90
7622;DHT22;3852;52.284;8.032;2022-08-14T00:13:19;22.80;99.90
7622;DHT22;3852;52.284;8.032;2022-08-14T00:15:48;22.70;99.90
7622;DHT22;3852;52.284;8.032;2022-08-14T00:18:18;22.70;99.90
7622;DHT22;3852;52.284;8.032;2022-08-14T00:20:45;22.50;99.90
7622;DHT22;3852;52.284;8.032;2022-08-14T00:23:12;22.50;99.90
7622;DHT22;3852;52.284;8.032;2022-08-14T00:25:39;22.40;99.90
7622;DHT22;3852;52.284;8.032;2022-08-14T00:28:09;22.40;99.90
7622;DHT22;3852;52.284;8.032;2022-08-14T00:30:36;22.30;99.90
7622;DHT22;3852;52.284;8.032;2022-08-14T00:33:02;22.20;99.90
7622;DHT22;3852;52.284;8.032;2022-08-14T00:35:29;22.10;99.90
7622;DHT22;3852;52.284;8.032;2022-08-14T00:37:56;22.00;99.90
7622;DHT22;3852;52.284;8.032;2022-08-14T00:40:23;22.00;99.90
7622;DHT22;3852;52.284;8.032;2022-08-14T00:42:49;21.90;99.90
7622;DHT22;3852;52.284;8.032;2022-08-14T00:45:16;21.90;99.90
7622;DHT22;3852;52.284;8.032;2022-08-14T00:47:45;21.80;99.90
7622;DHT22;3852;52.284;8.032;2022-08-14T00:50:19;21.80;99.90
7622;DHT22;3852;52.284;8.032;2022-08-14T00:52:48;21.80;99.90
7622;DHT22;3852;52.284;8.032;2022-08-14T00:55:17;21.60;99.90
7622;DHT22;3852;52.284;8.032;2022-08-14T00:57:45;21.60;99.90
7622;DHT22;3852;52.284;8.032;2022-08-14T01:00:31;21.60;99.90
7622;DHT22;3852;52.284;8.032;2022-08-14T01:02:58;21.60;99.90
7622;DHT22;3852;52.284;8.032;2022-08-14T01:05:25;21.60;99.90
7622;DHT22;3852;52.284;8.032;2022-08-14T01:07:52;21.60;99.90
7622;DHT22;3852;52.284;8.032;2022-08-14T01:10:22;21.60;99.90
7622;DHT22;3852;52.284;8.032;2022-08-14T01:13:10;21.60;99.90
7622;DHT22;3852;52.284;8.032;2022-08-14T01:15:44;21.80;99.90
7622;DHT22;3852;52.284;8.032;2022-08-14T01:18:13;21.70;99.90
7622;DHT22;3852;52.284;8.032;2022-08-14T01:20:59;21.70;99.90
7622;DHT22;3852;52.284;8.032;2022-08-14T01:23:29;21.80;99.90
7622;DHT22;3852;52.284;8.032;2022-08-14T01:25:56;21.80;99.90
7622;DHT22;3852;52.284;8.032;2022-08-14T01:28:23;21.80;99.90
7622;DHT22;3852;52.284;8.032;2022-08-14T01:30:52;21.90;99.90
7622;DHT22;3852;52.284;8.032;2022-08-14T01:33:26;21.90;99.90
7622;DHT22;3852;52.284;8.032;2022-08-14T01:35:57;21.70;99.90
7622;DHT22;3852;52.284;8.032;2022-08-14T01:38:26;21.70;99.90
7622;DHT22;3852;52.284;8.032;2022-08-14T01:40:55;21.60;99.90
7622;DHT22;3852;52.284;8.032;2022-08-14T01:43:22;21.50;99.90
7622;DHT22;3852;52.284;8.032;2022-08-14T01:45:57;21.50;99.90
7622;DHT22;3852;52.284;8.032;2022-08-14T01:48:25;21.50;99.90
7622;DHT22;3852;52.284;8.032;2022-08-14T01:50:56;21.50;99.90
7622;DHT22;3852;52.284;8.032;2022-08-14T01:53:22;21.40;99.90
7622;DHT22;3852;52.284;8.032;2022-08-14T01:55:48;21.40;99.90
7622;DHT22;3852;52.284;8.032;2022-08-14T01:58:16;21.30;99.90
7622;DHT22;3852;52.284;8.032;2022-08-14T02:00:43;21.30;99.90
7622;DHT22;3852;52.284;8.032;2022-08-14T02:03:08;21.30;99.90
7622;DHT22;3852;52.284;8.032;2022-08-14T02:05:34;21.20;99.90
7622;DHT22;3852;52.284;8.032;2022-08-14T02:08:00;21.10;99.90
7622;DHT22;3852;52.284;8.032;2022-08-14T02:10:26;21.10;99.90
7622;DHT22;3852;52.284;8.032;2022-08-14T02:12:54;21.10;99.90
7622;DHT22;3852;52.284;8.032;2022-08-14T02:15:21;21.10;99.90
7622;DHT22;3852;52.284;8.032;2022-08-14T02:17:48;21.00;99.90
7622;DHT22;3852;52.284;8.032;2022-08-14T02:20:14;21.00;99.90
7622;DHT22;3852;52.284;8.032;2022-08-14T02:22:42;21.00;99.90
7622;DHT22;3852;52.284;8.032;2022-08-14T02:25:08;20.90;99.90
7622;DHT22;3852;52.284;8.032;2022-08-14T02:27:35;20.90;99.90
7622;DHT22;3852;52.284;8.032;2022-08-14T02:30:03;20.90;99.90
7622;DHT22;3852;52.284;8.032;2022-08-14T02:32:30;21.00;99.90
7622;DHT22;3852;52.284;8.032;2022-08-14T02:34:59;21.00;99.90
7622;DHT22;3852;52.284;8.032;2022-08-14T02:37:25;21.10;99.90
7622;DHT22;3852;52.284;8.032;2022-08-14T02:39:51;21.20;99.90
7622;DHT22;3852;52.284;8.032;2022-08-14T02:42:18;21.30;99.90
7622;DHT22;3852;52.284;8.032;2022-08-14T02:44:46;21.40;99.90
7622;DHT22;3852;52.284;8.032;2022-08-14T02:47:13;21.40;99.90
7622;DHT22;3852;52.284;8.032;2022-08-14T02:49:40;21.40;99.90
7622;DHT22;3852;52.284;8.032;2022-08-14T02:52:06;21.30;99.90
7622;DHT22;3852;52.284;8.032;2022-08-14T02:54:33;21.20;99.90
7622;DHT22;3852;52.284;8.032;2022-08-14T02:57:01;21.30;99.90
7622;DHT22;3852;52.284;8.032;2022-08-14T02:59:31;21.30;99.90
7622;DHT22;3852;52.284;8.032;2022-08-14T03:01:58;21.30;99.90
7622;DHT22;3852;52.284;8.032;2022-08-14T03:04:24;21.30;99.90
7622;DHT22;3852;52.284;8.032;2022-08-14T03:06:54;21.30;99.90
7622;DHT22;3852;52.284;8.032;2022-08-14T03:09:20;21.20;99.90
7622;DHT22;3852;52.284;8.032;2022-08-14T03:11:46;21.20;99.90
7622;DHT22;3852;52.284;8.032;2022-08-14T03:14:13;21.10;99.90
7622;DHT22;3852;52.284;8.032;2022-08-14T03:16:39;21.10;99.90
7622;DHT22;3852;52.284;8.032;2022-08-14T03:19:07;21.00;99.90
7622;DHT22;3852;52.284;8.032;2022-08-14T03:21:34;21.00;99.90
7622;DHT22;3852;52.284;8.032;2022-08-14T03:24:02;21.10;99.90
7622;DHT22;3852;52.284;8.032;2022-08-14T03:26:40;21.00;99.90
7622;DHT22;3852;52.284;8.032;2022-08-14T03:29:08;20.90;99.90
7622;DHT22;3852;52.284;8.032;2022-08-14T03:31:37;20.80;99.90
7622;DHT22;3852;52.284;8.032;2022-08-14T03:34:09;20.90;99.90
7622;DHT22;3852;52.284;8.032;2022-08-14T03:36:37;20.80;99.90
7622;DHT22;3852;52.284;8.032;2022-08-14T03:39:06;20.80;99.90
7622;DHT22;3852;52.284;8.032;2022-08-14T03:41:32;20.80;99.90
7622;DHT22;3852;52.284;8.032;2022-08-14T03:44:02;20.80;99.90
7622;DHT22;3852;52.284;8.032;2022-08-14T03:46:32;20.70;99.90
7622;DHT22;3852;52.284;8.032;2022-08-14T03:49:00;20.80;99.90
7622;DHT22;3852;52.284;8.032;2022-08-14T03:51:27;20.90;99.90
7622;DHT22;3852;52.284;8.032;2022-08-14T03:53:55;20.90;99.90
7622;DHT22;3852;52.284;8.032;2022-08-14T03:56:23;20.80;99.90
7622;DHT22;3852;52.284;8.032;2022-08-14T03:58:55;20.80;99.90
7622;DHT22;3852;52.284;8.032;2022-08-14T04:01:22;20.90;99.90
7622;DHT22;3852;52.284;8.032;2022-08-14T04:03:51;21.00;99.90
7622;DHT22;3852;52.284;8.032;2022-08-14T04:06:19;20.90;99.90
7622;DHT22;3852;52.284;8.032;2022-08-14T04:08:45;20.80;99.90
7622;DHT22;3852;52.284;8.032;2022-08-14T04:11:12;20.80;99.90
7622;DHT22;3852;52.284;8.032;2022-08-14T04:13:40;20.80;99.90
7622;DHT22;3852;52.284;8.032;2022-08-14T04:16:20;20.90;99.90
7622;DHT22;3852;52.284;8.032;2022-08-14T04:18:55;20.70;99.90
7622;DHT22;3852;52.284;8.032;2022-08-14T04:21:24;20.60;99.90
7622;DHT22;3852;52.284;8.032;2022-08-14T04:23:53;20.60;99.90
7622;DHT22;3852;52.284;8.032;2022-08-14T04:26:20;20.60;99.90
7622;DHT22;3852;52.284;8.032;2022-08-14T04:28:48;20.50;99.90
7622;DHT22;3852;52.284;8.032;2022-08-14T04:31:16;20.40;99.90
7622;DHT22;3852;52.284;8.032;2022-08-14T04:33:42;20.50;99.90
7622;DHT22;3852;52.284;8.032;2022-08-14T04:36:08;20.60;99.90
7622;DHT22;3852;52.284;8.032;2022-08-14T04:38:34;20.70;99.90
7622;DHT22;3852;52.284;8.032;2022-08-14T04:41:18;20.80;99.90
7622;DHT22;3852;52.284;8.032;2022-08-14T04:44:04;20.80;99.90
7622;DHT22;3852;52.284;8.032;2022-08-14T04:46:32;20.80;99.90
7622;DHT22;3852;52.284;8.032;2022-08-14T04:48:59;20.80;99.90
7622;DHT22;3852;52.284;8.032;2022-08-14T04:51:25;20.80;99.90
7622;DHT22;3852;52.284;8.032;2022-08-14T04:53:53;20.80;99.90
7622;DHT22;3852;52.284;8.032;2022-08-14T04:56:22;20.80;99.90
7622;DHT22;3852;52.284;8.032;2022-08-14T04:58:50;20.90;99.90
7622;DHT22;3852;52.284;8.032;2022-08-14T05:01:25;20.80;99.90
7622;DHT22;3852;52.284;8.032;2022-08-14T05:03:52;20.90;99.90
7622;DHT22;3852;52.284;8.032;2022-08-14T05:06:20;20.90;99.90
7622;DHT22;3852;52.284;8.032;2022-08-14T05:08:47;20.80;99.90
7622;DHT22;3852;52.284;8.032;2022-08-14T05:11:13;20.80;99.90
7622;DHT22;3852;52.284;8.032;2022-08-14T05:13:39;20.80;99.90
7622;DHT22;3852;52.284;8.032;2022-08-14T05:16:06;20.90;99.90
7622;DHT22;3852;52.284;8.032;2022-08-14T05:18:36;20.90;99.90
7622;DHT22;3852;52.284;8.032;2022-08-14T05:21:05;21.00;99.90
7622;DHT22;3852;52.284;8.032;2022-08-14T05:23:35;21.10;99.90
7622;DHT22;3852;52.284;8.032;2022-08-14T05:26:02;21.20;99.90
7622;DHT22;3852;52.284;8.032;2022-08-14T05:28:32;21.20;99.90
7622;DHT22;3852;52.284;8.032;2022-08-14T05:31:01;21.10;99.90
7622;DHT22;3852;52.284;8.032;2022-08-14T05:33:29;21.10;99.90
7622;DHT22;3852;52.284;8.032;2022-08-14T05:35:58;21.20;99.90
7622;DHT22;3852;52.284;8.032;2022-08-14T05:38:31;21.20;99.90
7622;DHT22;3852;52.284;8.032;2022-08-14T05:41:08;21.20;99.90
7622;DHT22;3852;52.284;8.032;2022-08-14T05:43:37;21.20;99.90
7622;DHT22;3852;52.284;8.032;2022-08-14T05:46:06;21.40;99.90
7622;DHT22;3852;52.284;8.032;2022-08-14T05:48:32;21.50;99.90
7622;DHT22;3852;52.284;8.032;2022-08-14T05:50:58;21.50;99.90
7622;DHT22;3852;52.284;8.032;2022-08-14T05:53:26;21.60;99.90
7622;DHT22;3852;52.284;8.032;2022-08-14T05:55:52;21.60;99.90
7622;DHT22;3852;52.284;8.032;2022-08-14T05:58:20;21.70;99.90
7622;DHT22;3852;52.284;8.032;2022-08-14T06:00:47;21.70;99.90
7622;DHT22;3852;52.284;8.032;2022-08-14T06:03:20;21.70;99.90
7622;DHT22;3852;52.284;8.032;2022-08-14T06:05:48;21.70;99.90
7622;DHT22;3852;52.284;8.032;2022-08-14T06:08:18;21.80;99.90
7622;DHT22;3852;52.284;8.032;2022-08-14T06:10:50;21.80;99.90
7622;DHT22;3852;52.284;8.032;2022-08-14T06:13:17;21.80;99.90
7622;DHT22;3852;52.284;8.032;2022-08-14T06:15:44;21.90;99.90
7622;DHT22;3852;52.284;8.032;2022-08-14T06:18:11;22.00;99.90
7622;DHT22;3852;52.284;8.032;2022-08-14T06:20:37;22.10;99.90
7622;DHT22;3852;52.284;8.032;2022-08-14T06:23:03;22.00;99.90
7622;DHT22;3852;52.284;8.032;2022-08-14T06:25:30;22.10;99.90
7622;DHT22;3852;52.284;8.032;2022-08-14T06:27:57;22.10;99.90
7622;DHT22;3852;52.284;8.032;2022-08-14T06:30:26;22.20;99.90
7622;DHT22;3852;52.284;8.032;2022-08-14T06:32:54;22.30;99.90
7622;DHT22;3852;52.284;8.032;2022-08-14T06:35:20;22.40;99.90
7622;DHT22;3852;52.284;8.032;2022-08-14T06:40:29;22.60;99.90
7622;DHT22;3852;52.284;8.032;2022-08-14T06:43:04;22.60;99.90
7622;DHT22;3852;52.284;8.032;2022-08-14T06:45:35;22.70;99.90
7622;DHT22;3852;52.284;8.032;2022-08-14T06:48:03;22.70;99.90
7622;DHT22;3852;52.284;8.032;2022-08-14T06:50:30;22.70;99.90
7622;DHT22;3852;52.284;8.032;2022-08-14T06:52:57;22.80;99.90
7622;DHT22;3852;52.284;8.032;2022-08-14T06:55:23;22.80;99.90
7622;DHT22;3852;52.284;8.032;2022-08-14T06:57:50;23.00;99.90
7622;DHT22;3852;52.284;8.032;2022-08-14T07:00:20;23.10;99.90
7622;DHT22;3852;52.284;8.032;2022-08-14T07:02:48;23.20;99.90
7622;DHT22;3852;52.284;8.032;2022-08-14T07:05:38;23.20;99.90
7622;DHT22;3852;52.284;8.032;2022-08-14T07:08:21;23.30;99.90
7622;DHT22;3852;52.284;8.032;2022-08-14T07:10:53;23.40;99.90
7622;DHT22;3852;52.284;8.032;2022-08-14T07:13:21;23.50;99.90
7622;DHT22;3852;52.284;8.032;2022-08-14T07:15:49;23.70;99.90
7622;DHT22;3852;52.284;8.032;2022-08-14T07:18:21;23.80;99.90
7622;DHT22;3852;52.284;8.032;2022-08-14T07:20:49;23.90;99.90
7622;DHT22;3852;52.284;8.032;2022-08-14T07:23:17;24.00;99.90
7622;DHT22;3852;52.284;8.032;2022-08-14T07:25:44;24.00;99.90
7622;DHT22;3852;52.284;8.032;2022-08-14T07:28:13;24.10;99.90
7622;DHT22;3852;52.284;8.032;2022-08-14T07:30:40;24.20;99.90
7622;DHT22;3852;52.284;8.032;2022-08-14T07:33:07;24.20;99.90
7622;DHT22;3852;52.284;8.032;2022-08-14T07:35:34;24.20;99.90
7622;DHT22;3852;52.284;8.032;2022-08-14T07:38:02;24.30;99.90
7622;DHT22;3852;52.284;8.032;2022-08-14T07:40:28;24.30;99.90
7622;DHT22;3852;52.284;8.032;2022-08-14T07:42:55;24.40;99.90
7622;DHT22;3852;52.284;8.032;2022-08-14T07:45:21;24.50;99.90
7622;DHT22;3852;52.284;8.032;2022-08-14T07:47:47;24.60;99.90
7622;DHT22;3852;52.284;8.032;2022-08-14T07:50:17;24.70;99.90
7622;DHT22;3852;52.284;8.032;2022-08-14T07:52:47;24.80;99.90
7622;DHT22;3852;52.284;8.032;2022-08-14T07:55:15;25.10;99.90
7622;DHT22;3852;52.284;8.032;2022-08-14T07:57:44;25.40;99.90
7622;DHT22;3852;52.284;8.032;2022-08-14T08:00:13;25.50;99.90
7622;DHT22;3852;52.284;8.032;2022-08-14T08:02:44;25.50;99.90
7622;DHT22;3852;52.284;8.032;2022-08-14T08:05:13;25.30;99.90
7622;DHT22;3852;52.284;8.032;2022-08-14T08:07:41;25.10;99.90
7622;DHT22;3852;52.284;8.032;2022-08-14T08:13:03;25.10;99.90
7622;DHT22;3852;52.284;8.032;2022-08-14T08:15:34;25.20;99.90
7622;DHT22;3852;52.284;8.032;2022-08-14T08:18:02;25.30;99.90
7622;DHT22;3852;52.284;8.032;2022-08-14T08:20:34;25.40;99.90
7622;DHT22;3852;52.284;8.032;2022-08-14T08:23:02;25.50;99.90
7622;DHT22;3852;52.284;8.032;2022-08-14T08:25:31;25.60;99.90
7622;DHT22;3852;52.284;8.032;2022-08-14T08:28:08;25.80;99.90
7622;DHT22;3852;52.284;8.032;2022-08-14T08:30:38;25.80;99.90
7622;DHT22;3852;52.284;8.032;2022-08-14T08:33:07;25.90;99.90
7622;DHT22;3852;52.284;8.032;2022-08-14T08:35:35;26.00;99.90
7622;DHT22;3852;52.284;8.032;2022-08-14T08:38:18;26.00;99.90
7622;DHT22;3852;52.284;8.032;2022-08-14T08:40:49;26.10;99.90
7622;DHT22;3852;52.284;8.032;2022-08-14T08:48:25;26.20;99.90
7622;DHT22;3852;52.284;8.032;2022-08-14T08:50:59;26.30;99.90
7622;DHT22;3852;52.284;8.032;2022-08-14T08:53:34;26.10;99.90
7622;DHT22;3852;52.284;8.032;2022-08-14T08:56:01;26.10;99.90
7622;DHT22;3852;52.284;8.032;2022-08-14T08:58:28;26.10;99.90
7622;DHT22;3852;52.284;8.032;2022-08-14T09:00:57;26.20;99.90
7622;DHT22;3852;52.284;8.032;2022-08-14T09:03:26;26.40;99.90
7622;DHT22;3852;52.284;8.032;2022-08-14T09:05:53;26.40;99.90
7622;DHT22;3852;52.284;8.032;2022-08-14T09:08:25;26.40;99.90
7622;DHT22;3852;52.284;8.032;2022-08-14T09:10:54;26.60;99.90
7622;DHT22;3852;52.284;8.032;2022-08-14T09:13:22;26.70;99.90
7622;DHT22;3852;52.284;8.032;2022-08-14T09:15:52;26.70;99.90
7622;DHT22;3852;52.284;8.032;2022-08-14T09:18:21;26.60;99.90
7622;DHT22;3852;52.284;8.032;2022-08-14T09:20:53;26.70;99.90
7622;DHT22;3852;52.284;8.032;2022-08-14T09:23:21;26.70;99.90
7622;DHT22;3852;52.284;8.032;2022-08-14T09:25:49;26.60;99.90
7622;DHT22;3852;52.284;8.032;2022-08-14T09:28:17;26.60;99.90
7622;DHT22;3852;52.284;8.032;2022-08-14T09:30:48;26.70;99.90
7622;DHT22;3852;52.284;8.032;2022-08-14T09:45:37;27.40;99.90
7622;DHT22;3852;52.284;8.032;2022-08-14T09:48:15;27.50;99.90
7622;DHT22;3852;52.284;8.032;2022-08-14T09:50:50;27.50;99.90
7622;DHT22;3852;52.284;8.032;2022-08-14T09:56:09;27.70;99.90
7622;DHT22;3852;52.284;8.032;2022-08-14T09:58:44;27.70;99.90
7622;DHT22;3852;52.284;8.032;2022-08-14T10:01:13;27.80;99.90
7622;DHT22;3852;52.284;8.032;2022-08-14T10:03:49;27.70;99.90
7622;DHT22;3852;52.284;8.032;2022-08-14T10:06:19;27.80;99.90
7622;DHT22;3852;52.284;8.032;2022-08-14T10:08:50;27.60;99.90
7622;DHT22;3852;52.284;8.032;2022-08-14T10:11:26;27.70;99.90
7622;DHT22;3852;52.284;8.032;2022-08-14T10:13:58;27.90;99.90
7622;DHT22;3852;52.284;8.032;2022-08-14T10:16:42;28.10;99.90
7622;DHT22;3852;52.284;8.032;2022-08-14T10:19:14;28.00;99.90
7622;DHT22;3852;52.284;8.032;2022-08-14T10:21:42;27.90;99.90
7622;DHT22;3852;52.284;8.032;2022-08-14T10:24:24;28.00;99.90
7622;DHT22;3852;52.284;8.032;2022-08-14T10:26:57;27.90;99.90
7622;DHT22;3852;52.284;8.032;2022-08-14T10:29:38;28.00;99.90
7622;DHT22;3852;52.284;8.032;2022-08-14T10:32:08;28.00;99.90
7622;DHT22;3852;52.284;8.032;2022-08-14T10:34:37;28.20;99.90
7622;DHT22;3852;52.284;8.032;2022-08-14T10:37:07;28.40;99.90
7622;DHT22;3852;52.284;8.032;2022-08-14T10:39:36;28.40;99.90
7622;DHT22;3852;52.284;8.032;2022-08-14T10:42:08;28.30;99.90
7622;DHT22;3852;52.284;8.032;2022-08-14T10:47:05;28.40;99.90
7622;DHT22;3852;52.284;8.032;2022-08-14T10:49:36;28.40;99.90
7622;DHT22;3852;52.284;8.032;2022-08-14T10:52:09;28.50;99.90
7622;DHT22;3852;52.284;8.032;2022-08-14T10:54:44;28.50;99.90
7622;DHT22;3852;52.284;8.032;2022-08-14T11:02:29;28.30;99.90
7622;DHT22;3852;52.284;8.032;2022-08-14T11:05:08;28.50;99.90
7622;DHT22;3852;52.284;8.032;2022-08-14T11:07:38;28.40;99.90
7622;DHT22;3852;52.284;8.032;2022-08-14T11:10:25;28.70;99.90
7622;DHT22;3852;52.284;8.032;2022-08-14T11:13:30;29.00;99.90
7622;DHT22;3852;52.284;8.032;2022-08-14T11:15:59;29.10;99.90
7622;DHT22;3852;52.284;8.032;2022-08-14T11:18:27;29.00;99.90
7622;DHT22;3852;52.284;8.032;2022-08-14T11:20:56;29.00;99.90
7622;DHT22;3852;52.284;8.032;2022-08-14T11:23:28;29.00;99.90
7622;DHT22;3852;52.284;8.032;2022-08-14T11:25:57;29.10;99.90
7622;DHT22;3852;52.284;8.032;2022-08-14T11:28:27;29.10;99.90
7622;DHT22;3852;52.284;8.032;2022-08-14T11:30:58;29.00;99.90
7622;DHT22;3852;52.284;8.032;2022-08-14T11:33:29;29.20;99.90
7622;DHT22;3852;52.284;8.032;2022-08-14T11:35:56;29.30;99.90
7622;DHT22;3852;52.284;8.032;2022-08-14T11:38:27;29.40;99.90
7622;DHT22;3852;52.284;8.032;2022-08-14T11:40:56;29.50;99.90
7622;DHT22;3852;52.284;8.032;2022-08-14T11:43:22;29.50;99.90
7622;DHT22;3852;52.284;8.032;2022-08-14T11:45:50;29.50;99.90
7622;DHT22;3852;52.284;8.032;2022-08-14T11:48:18;29.40;99.90
7622;DHT22;3852;52.284;8.032;2022-08-14T11:50:48;29.50;99.90
7622;DHT22;3852;52.284;8.032;2022-08-14T11:53:26;29.50;99.90
7622;DHT22;3852;52.284;8.032;2022-08-14T11:56:05;29.60;99.90
7622;DHT22;3852;52.284;8.032;2022-08-14T11:58:34;29.90;99.90
7622;DHT22;3852;52.284;8.032;2022-08-14T12:01:08;30.00;99.90
7622;DHT22;3852;52.284;8.032;2022-08-14T12:03:44;29.90;99.90
7622;DHT22;3852;52.284;8.032;2022-08-14T12:06:13;29.90;99.90
7622;DHT22;3852;52.284;8.032;2022-08-14T12:08:43;29.90;99.90
7622;DHT22;3852;52.284;8.032;2022-08-14T12:11:13;29.90;99.90
7622;DHT22;3852;52.284;8.032;2022-08-14T12:13:42;29.70;99.90
7622;DHT22;3852;52.284;8.032;2022-08-14T12:16:12;29.80;99.90
7622;DHT22;3852;52.284;8.032;2022-08-14T12:18:43;29.80;99.90
7622;DHT22;3852;52.284;8.032;2022-08-14T12:21:21;29.90;99.90
7622;DHT22;3852;52.284;8.032;2022-08-14T12:24:01;30.00;99.90
7622;DHT22;3852;52.284;8.032;2022-08-14T12:26:30;30.00;99.90
7622;DHT22;3852;52.284;8.032;2022-08-14T12:29:11;30.00;99.90
7622;DHT22;3852;52.284;8.032;2022-08-14T12:31:39;29.90;99.90
7622;DHT22;3852;52.284;8.032;2022-08-14T12:34:11;29.90;99.90
7622;DHT22;3852;52.284;8.032;2022-08-14T12:36:39;30.00;99.90
7622;DHT22;3852;52.284;8.032;2022-08-14T12:39:20;30.10;99.90
7622;DHT22;3852;52.284;8.032;2022-08-14T12:41:55;30.20;99.90
7622;DHT22;3852;52.284;8.032;2022-08-14T12:44:47;30.00;99.90
7622;DHT22;3852;52.284;8.032;2022-08-14T12:47:14;30.10;99.90
7622;DHT22;3852;52.284;8.032;2022-08-14T12:49:54;30.00;99.90
7622;DHT22;3852;52.284;8.032;2022-08-14T12:52:34;29.90;99.90
7622;DHT22;3852;52.284;8.032;2022-08-14T12:55:06;29.90;99.90
7622;DHT22;3852;52.284;8.032;2022-08-14T12:57:39;30.00;99.90
7622;DHT22;3852;52.284;8.032;2022-08-14T13:00:22;30.10;99.90
7622;DHT22;3852;52.284;8.032;2022-08-14T13:02:51;30.40;99.90
7622;DHT22;3852;52.284;8.032;2022-08-14T13:05:24;30.50;99.90
7622;DHT22;3852;52.284;8.032;2022-08-14T13:07:54;30.60;99.90
7622;DHT22;3852;52.284;8.032;2022-08-14T13:10:22;30.50;99.90
7622;DHT22;3852;52.284;8.032;2022-08-14T13:12:53;30.40;99.90
7622;DHT22;3852;52.284;8.032;2022-08-14T13:15:20;30.20;99.90
7622;DHT22;3852;52.284;8.032;2022-08-14T13:17:48;30.10;99.90
7622;DHT22;3852;52.284;8.032;2022-08-14T13:20:20;30.00;99.90
7622;DHT22;3852;52.284;8.032;2022-08-14T13:22:47;30.10;99.90
7622;DHT22;3852;52.284;8.032;2022-08-14T13:25:16;30.30;99.90
7622;DHT22;3852;52.284;8.032;2022-08-14T13:27:45;30.00;99.90
7622;DHT22;3852;52.284;8.032;2022-08-14T13:30:16;30.20;99.90
7622;DHT22;3852;52.284;8.032;2022-08-14T13:32:45;30.30;99.90
7622;DHT22;3852;52.284;8.032;2022-08-14T13:35:13;30.50;99.90
7622;DHT22;3852;52.284;8.032;2022-08-14T13:37:42;30.60;99.90
7622;DHT22;3852;52.284;8.032;2022-08-14T13:40:11;30.80;99.90
7622;DHT22;3852;52.284;8.032;2022-08-14T13:42:43;30.70;99.90
7622;DHT22;3852;52.284;8.032;2022-08-14T13:45:10;30.70;99.90
7622;DHT22;3852;52.284;8.032;2022-08-14T13:47:37;30.40;99.90
7622;DHT22;3852;52.284;8.032;2022-08-14T13:50:08;30.40;99.90
7622;DHT22;3852;52.284;8.032;2022-08-14T13:52:48;30.40;99.90
7622;DHT22;3852;52.284;8.032;2022-08-14T13:55:24;30.70;99.90
7622;DHT22;3852;52.284;8.032;2022-08-14T13:57:55;30.80;99.90
7622;DHT22;3852;52.284;8.032;2022-08-14T14:00:22;30.80;99.90
7622;DHT22;3852;52.284;8.032;2022-08-14T14:02:48;30.90;99.90
7622;DHT22;3852;52.284;8.032;2022-08-14T14:05:17;30.80;99.90
7622;DHT22;3852;52.284;8.032;2022-08-14T14:07:46;30.80;99.90
7622;DHT22;3852;52.284;8.032;2022-08-14T14:10:14;30.90;99.90
7622;DHT22;3852;52.284;8.032;2022-08-14T14:12:42;31.00;99.90
7622;DHT22;3852;52.284;8.032;2022-08-14T14:15:12;30.90;99.90
7622;DHT22;3852;52.284;8.032;2022-08-14T14:17:40;30.70;99.90
7622;DHT22;3852;52.284;8.032;2022-08-14T14:20:09;30.70;99.90
7622;DHT22;3852;52.284;8.032;2022-08-14T14:22:41;30.70;99.90
7622;DHT22;3852;52.284;8.032;2022-08-14T14:25:09;30.80;99.90
7622;DHT22;3852;52.284;8.032;2022-08-14T14:27:39;31.00;99.90
7622;DHT22;3852;52.284;8.032;2022-08-14T14:30:07;31.00;99.90
7622;DHT22;3852;52.284;8.032;2022-08-14T14:32:37;31.10;99.90
7622;DHT22;3852;52.284;8.032;2022-08-14T14:35:12;31.20;99.90
7622;DHT22;3852;52.284;8.032;2022-08-14T14:37:41;31.20;99.90
7622;DHT22;3852;52.284;8.032;2022-08-14T14:40:09;31.20;99.90
7622;DHT22;3852;52.284;8.032;2022-08-14T14:42:50;31.10;99.90
7622;DHT22;3852;52.284;8.032;2022-08-14T14:45:21;31.10;99.90
7622;DHT22;3852;52.284;8.032;2022-08-14T14:47:53;30.80;99.90
7622;DHT22;3852;52.284;8.032;2022-08-14T14:50:21;30.70;99.90
7622;DHT22;3852;52.284;8.032;2022-08-14T14:52:48;30.70;99.90
7622;DHT22;3852;52.284;8.032;2022-08-14T14:55:16;30.80;99.90
7622;DHT22;3852;52.284;8.032;2022-08-14T14:57:43;30.80;99.90
7622;DHT22;3852;52.284;8.032;2022-08-14T15:00:13;30.70;99.90
7622;DHT22;3852;52.284;8.032;2022-08-14T15:02:44;30.60;99.90
7622;DHT22;3852;52.284;8.032;2022-08-14T15:05:13;30.50;99.90
7622;DHT22;3852;52.284;8.032;2022-08-14T15:07:40;30.40;99.90
7622;DHT22;3852;52.284;8.032;2022-08-14T15:10:11;30.60;99.90
7622;DHT22;3852;52.284;8.032;2022-08-14T15:12:39;30.50;99.90
7622;DHT22;3852;52.284;8.032;2022-08-14T15:15:06;30.60;99.90
7622;DHT22;3852;52.284;8.032;2022-08-14T15:17:32;30.60;99.90
7622;DHT22;3852;52.284;8.032;2022-08-14T15:20:05;30.70;99.90
7622;DHT22;3852;52.284;8.032;2022-08-14T15:22:36;30.90;99.90
7622;DHT22;3852;52.284;8.032;2022-08-14T15:25:07;31.10;99.90
7622;DHT22;3852;52.284;8.032;2022-08-14T15:27:37;31.40;99.90
7622;DHT22;3852;52.284;8.032;2022-08-14T15:30:08;31.40;99.90
7622;DHT22;3852;52.284;8.032;2022-08-14T15:32:34;31.30;99.90
7622;DHT22;3852;52.284;8.032;2022-08-14T15:35:00;31.30;99.90
7622;DHT22;3852;52.284;8.032;2022-08-14T15:37:26;31.20;99.90
7622;DHT22;3852;52.284;8.032;2022-08-14T15:39:52;31.30;99.90
7622;DHT22;3852;52.284;8.032;2022-08-14T15:42:18;31.40;99.90
7622;DHT22;3852;52.284;8.032;2022-08-14T15:44:50;31.30;99.90
7622;DHT22;3852;52.284;8.032;2022-08-14T15:47:16;31.40;99.90
7622;DHT22;3852;52.284;8.032;2022-08-14T15:49:42;31.50;99.90
7622;DHT22;3852;52.284;8.032;2022-08-14T15:52:08;31.80;99.90
7622;DHT22;3852;52.284;8.032;2022-08-14T15:54:34;31.90;99.90
7622;DHT22;3852;52.284;8.032;2022-08-14T15:57:07;31.80;99.90
7622;DHT22;3852;52.284;8.032;2022-08-14T15:59:35;31.70;99.90
7622;DHT22;3852;52.284;8.032;2022-08-14T16:02:20;31.40;99.90
7622;DHT22;3852;52.284;8.032;2022-08-14T16:04:46;31.30;99.90
7622;DHT22;3852;52.284;8.032;2022-08-14T16:07:16;31.20;99.90
7622;DHT22;3852;52.284;8.032;2022-08-14T16:09:43;31.20;99.90
7622;DHT22;3852;52.284;8.032;2022-08-14T16:12:09;31.00;99.90
7622;DHT22;3852;52.284;8.032;2022-08-14T16:14:35;31.10;99.90
7622;DHT22;3852;52.284;8.032;2022-08-14T16:17:04;30.80;99.90
7622;DHT22;3852;52.284;8.032;2022-08-14T16:19:34;30.80;99.90
7622;DHT22;3852;52.284;8.032;2022-08-14T16:22:04;30.70;99.90
7622;DHT22;3852;52.284;8.032;2022-08-14T16:24:36;30.60;99.90
7622;DHT22;3852;52.284;8.032;2022-08-14T16:27:05;30.50;99.90
7622;DHT22;3852;52.284;8.032;2022-08-14T16:29:36;30.60;99.90
7622;DHT22;3852;52.284;8.032;2022-08-14T16:32:06;30.60;99.90
7622;DHT22;3852;52.284;8.032;2022-08-14T16:34:36;30.70;99.90
7622;DHT22;3852;52.284;8.032;2022-08-14T16:37:09;30.70;99.90
7622;DHT22;3852;52.284;8.032;2022-08-14T16:39:38;30.80;99.90
7622;DHT22;3852;52.284;8.032;2022-08-14T16:42:06;30.80;99.90
7622;DHT22;3852;52.284;8.032;2022-08-14T16:44:34;30.80;99.90
7622;DHT22;3852;52.284;8.032;2022-08-14T16:47:11;30.80;99.90
7622;DHT22;3852;52.284;8.032;2022-08-14T16:49:42;30.80;99.90
7622;DHT22;3852;52.284;8.032;2022-08-14T16:52:12;30.80;99.90